Time;durP1;ratioP1;P1;durP2;ratioP2;P2;SDS_P1;SDS_P2;PMS_P1;PMS_P2;Temp;Humidity;BMP_temperature;BMP_pressure;BME280_temperature;BME280_humidity;BME280_pressure;Samples;Min_cycle;Max_cycle;Signal;HPM_P1;HPM_P2
2022/08/04 00:02:06;;;;;;;11.85;8.57;;;19.10;99.90;;;;;;5109023;28;20028;-73
2022/08/04 00:04:38;;;;;;;11.18;8.43;;;19.10;99.90;;;;;;5110609;28;20042;-73
2022/08/04 00:07:17;;;;;;;11.77;8.95;;;19.10;99.90;;;;;;5110526;28;20371;-74
2022/08/04 00:09:50;;;;;;;11.00;8.30;;;19.20;99.90;;;;;;5110660;28;20047;-73
2022/08/04 00:12:16;;;;;;;12.43;8.93;;;19.10;99.90;;;;;;5110402;28;20160;-72
2022/08/04 00:14:48;;;;;;;11.25;8.55;;;19.00;99.90;;;;;;5111035;28;20406;-72
2022/08/04 00:17:18;;;;;;;14.27;8.65;;;19.00;99.90;;;;;;5110449;28;20032;-73
2022/08/04 00:19:47;;;;;;;12.63;9.80;;;19.00;99.90;;;;;;5110880;28;20034;-73
2022/08/04 00:22:14;;;;;;;10.93;8.68;;;19.00;99.90;;;;;;5110791;28;20032;-73
2022/08/04 00:24:40;;;;;;;12.50;9.10;;;19.00;99.90;;;;;;5109084;28;20636;-73
2022/08/04 00:27:07;;;;;;;13.30;9.77;;;19.00;99.90;;;;;;5110255;28;20140;-73
2022/08/04 00:29:34;;;;;;;12.40;9.82;;;19.00;99.90;;;;;;5110640;28;20050;-72
2022/08/04 00:32:02;;;;;;;12.98;9.57;;;19.00;99.90;;;;;;5110096;28;20139;-73
2022/08/04 00:34:30;;;;;;;13.73;8.93;;;19.10;99.90;;;;;;5110605;28;20089;-74
2022/08/04 00:36:57;;;;;;;11.30;9.43;;;19.00;99.90;;;;;;5110017;28;20102;-73
2022/08/04 00:39:23;;;;;;;13.07;10.02;;;19.00;99.90;;;;;;5111753;28;20475;-73
2022/08/04 00:42:14;;;;;;;11.70;9.05;;;19.00;99.90;;;;;;5112474;28;20073;-73
2022/08/04 00:44:51;;;;;;;12.55;10.27;;;19.00;99.90;;;;;;5112776;28;20035;-73
2022/08/04 00:47:35;;;;;;;12.13;9.30;;;19.00;99.90;;;;;;5112430;28;20034;-73
2022/08/04 00:50:42;;;;;;;14.32;10.30;;;19.00;99.90;;;;;;5112514;28;20031;-74
2022/08/04 00:53:29;;;;;;;14.63;10.63;;;19.00;99.90;;;;;;5112397;28;20061;-74
2022/08/04 00:56:24;;;;;;;13.97;10.40;;;19.00;99.90;;;;;;5113571;28;20498;-73
2022/08/04 00:59:02;;;;;;;14.45;10.43;;;19.00;99.90;;;;;;5097175;28;20046;-73
2022/08/04 01:01:46;;;;;;;14.35;10.90;;;19.00;99.90;;;;;;5113647;28;20507;-73
2022/08/04 01:04:36;;;;;;;14.30;10.52;;;19.00;99.90;;;;;;5112444;28;20088;-73
2022/08/04 01:07:29;;;;;;;14.02;10.55;;;19.00;99.90;;;;;;5112334;28;20028;-73
2022/08/04 01:10:08;;;;;;;16.65;10.82;;;19.00;99.90;;;;;;5112033;28;20093;-73
2022/08/04 01:13:06;;;;;;;14.63;10.75;;;19.00;99.90;;;;;;5113736;28;20075;-73
2022/08/04 01:15:59;;;;;;;13.95;10.90;;;19.00;99.90;;;;;;5113397;28;20032;-73
2022/08/04 01:19:01;;;;;;;15.35;10.88;;;19.00;99.90;;;;;;5112051;28;20040;-73
2022/08/04 01:21:29;;;;;;;14.43;10.45;;;19.00;99.90;;;;;;5107885;28;20126;-73
2022/08/04 01:24:01;;;;;;;16.95;11.18;;;19.00;99.90;;;;;;5113511;28;20164;-73
2022/08/04 01:26:42;;;;;;;15.70;11.35;;;19.00;99.90;;;;;;5113098;28;20383;-73
2022/08/04 01:29:11;;;;;;;14.85;11.40;;;19.00;99.90;;;;;;5112884;28;20027;-73
2022/08/04 01:31:45;;;;;;;14.45;11.57;;;19.00;99.90;;;;;;5113031;28;20336;-73
2022/08/04 01:34:12;;;;;;;14.30;11.07;;;19.00;99.90;;;;;;5112875;28;20030;-73
2022/08/04 01:36:44;;;;;;;14.27;11.48;;;19.10;99.90;;;;;;5112978;28;20371;-73
2022/08/04 01:41:58;;;;;;;14.90;11.95;;;19.00;99.90;;;;;;5113094;28;20061;-73
2022/08/04 01:44:28;;;;;;;18.13;12.60;;;19.10;99.90;;;;;;5113079;28;20514;-73
2022/08/04 01:46:54;;;;;;;16.35;12.73;;;19.00;99.90;;;;;;5112910;28;20014;-73
2022/08/04 01:49:21;;;;;;;16.63;12.10;;;19.00;99.90;;;;;;5112682;28;20066;-73
2022/08/04 01:51:51;;;;;;;18.45;11.80;;;19.00;99.90;;;;;;5112804;28;20523;-73
2022/08/04 01:54:17;;;;;;;15.75;12.23;;;19.00;99.90;;;;;;5112531;28;20044;-73
2022/08/04 01:56:45;;;;;;;16.38;11.73;;;19.00;99.90;;;;;;5112544;28;20474;-73
2022/08/04 01:59:16;;;;;;;15.55;11.98;;;19.00;99.90;;;;;;5112691;28;20476;-73
2022/08/04 02:01:42;;;;;;;16.35;13.15;;;18.90;99.90;;;;;;5112407;28;20505;-73
2022/08/04 02:04:21;;;;;;;15.33;11.30;;;19.00;99.90;;;;;;5112292;28;20024;-73
2022/08/04 02:06:47;;;;;;;17.33;12.38;;;19.00;99.90;;;;;;5112299;28;20039;-73
2022/08/04 02:09:49;;;;;;;17.83;12.47;;;19.00;99.90;;;;;;5110966;28;20031;-73
2022/08/04 02:12:26;;;;;;;16.38;11.65;;;19.00;99.90;;;;;;5112144;28;20395;-73
2022/08/04 02:15:27;;;;;;;14.80;11.63;;;18.90;99.90;;;;;;5112667;28;20457;-72
2022/08/04 02:18:12;;;;;;;17.40;11.95;;;19.00;99.90;;;;;;5112032;28;20051;-72
2022/08/04 02:20:42;;;;;;;16.88;12.40;;;18.90;99.90;;;;;;5110481;28;20359;-72
2022/08/04 02:23:13;;;;;;;17.73;12.40;;;18.90;99.90;;;;;;5112057;28;20042;-73
2022/08/04 02:25:44;;;;;;;18.83;12.07;;;18.90;99.90;;;;;;5112032;28;20047;-73
2022/08/04 02:28:49;;;;;;;16.08;12.10;;;18.80;99.90;;;;;;5110518;28;20395;-73
2022/08/04 02:31:43;;;;;;;22.02;14.27;;;18.90;99.90;;;;;;5104293;28;20542;-73
2022/08/04 02:34:20;;;;;;;19.13;13.60;;;18.80;99.90;;;;;;5111639;28;20338;-73
2022/08/04 02:36:47;;;;;;;17.55;13.15;;;18.80;99.90;;;;;;5111703;28;20076;-73
2022/08/04 02:39:18;;;;;;;17.33;12.93;;;18.90;99.90;;;;;;5110295;28;20035;-73
2022/08/04 02:41:47;;;;;;;18.23;13.25;;;18.90;99.90;;;;;;5111680;27;20034;-72
2022/08/04 02:44:17;;;;;;;19.65;13.48;;;18.90;99.90;;;;;;5111959;28;20032;-72
2022/08/04 02:46:45;;;;;;;19.67;13.73;;;19.00;99.90;;;;;;5111625;28;20498;-72
2022/08/04 02:49:11;;;;;;;17.65;13.02;;;19.00;99.90;;;;;;5110203;28;20027;-72
2022/08/04 02:51:48;;;;;;;19.30;14.18;;;18.90;99.90;;;;;;5111384;28;20034;-73
2022/08/04 02:54:14;;;;;;;;;;;18.90;99.90;;;;;;5112008;28;20088;-72
2022/08/04 02:56:43;;;;;;;21.52;13.95;;;18.90;99.90;;;;;;5111707;28;19915;-73
2022/08/04 02:59:10;;;;;;;17.75;13.10;;;18.80;99.90;;;;;;5111427;28;20039;-73
2022/08/04 03:01:37;;;;;;;19.42;14.15;;;18.90;99.90;;;;;;5110442;28;20055;-73
2022/08/04 03:04:28;;;;;;;18.33;13.88;;;18.80;99.90;;;;;;5110196;28;20031;-72
2022/08/04 03:07:28;;;;;;;18.20;13.10;;;18.90;99.90;;;;;;5109733;28;20016;-73
2022/08/04 03:09:59;;;;;;;18.02;13.52;;;18.80;99.90;;;;;;5109745;28;20063;-72
2022/08/04 03:12:31;;;;;;;18.83;13.38;;;18.90;99.90;;;;;;5110963;28;20031;-73
2022/08/04 03:15:08;;;;;;;18.75;13.88;;;18.90;99.90;;;;;;5110951;28;20049;-73
2022/08/04 03:17:52;;;;;;;19.10;13.88;;;18.90;99.90;;;;;;5110892;28;20040;-73
2022/08/04 03:20:59;;;;;;;20.90;15.23;;;19.00;99.90;;;;;;5111194;28;20445;-73
2022/08/04 03:23:36;;;;;;;21.85;14.07;;;19.00;99.90;;;;;;5111389;28;20371;-73
2022/08/04 03:26:18;;;;;;;18.48;13.10;;;19.00;99.90;;;;;;5110773;28;20200;-73
2022/08/04 03:28:59;;;;;;;18.98;14.35;;;19.00;99.90;;;;;;5110665;28;20028;-73
2022/08/04 03:31:59;;;;;;;18.17;13.32;;;19.00;99.90;;;;;;5110776;28;20026;-73
2022/08/04 03:34:52;;;;;;;20.05;13.80;;;19.00;99.90;;;;;;5111125;28;20509;-74
2022/08/04 03:37:45;;;;;;;16.75;13.05;;;19.00;99.90;;;;;;5109397;28;20313;-73
2022/08/04 03:40:25;;;;;;;20.33;13.77;;;19.00;99.90;;;;;;5110844;28;20084;-73
2022/08/04 03:43:00;;;;;;;18.33;13.60;;;19.00;99.90;;;;;;5109209;28;20032;-73
2022/08/04 03:46:07;;;;;;;17.58;13.57;;;19.00;99.90;;;;;;5110626;28;20016;-74
2022/08/04 03:48:51;;;;;;;20.08;13.95;;;19.00;99.90;;;;;;5110975;28;20471;-73
2022/08/04 03:54:13;;;;;;;18.50;13.65;;;19.00;99.90;;;;;;5110818;28;20038;-73
2022/08/04 03:56:44;;;;;;;17.38;13.25;;;19.00;99.90;;;;;;5110812;28;20495;-73
2022/08/04 03:59:13;;;;;;;20.35;15.05;;;19.00;99.90;;;;;;5110619;28;20479;-73
2022/08/04 04:02:13;;;;;;;19.42;14.10;;;19.10;99.90;;;;;;5109035;28;20279;-73
2022/08/04 04:05:09;;;;;;;19.58;13.70;;;19.10;99.90;;;;;;5110413;28;20054;-72
2022/08/04 04:08:06;;;;;;;17.60;12.82;;;19.10;99.90;;;;;;5110288;28;20020;-72
2022/08/04 04:11:03;;;;;;;20.73;14.53;;;19.10;99.90;;;;;;5110257;28;20547;-72
2022/08/04 04:14:06;;;;;;;19.00;13.65;;;19.10;99.90;;;;;;5112393;28;20035;-73
2022/08/04 04:16:46;;;;;;;20.10;15.10;;;19.10;99.90;;;;;;5114415;28;20261;-74
2022/08/04 04:19:40;;;;;;;21.73;14.85;;;19.20;99.90;;;;;;5112864;28;20042;-74
2022/08/04 04:22:35;;;;;;;18.88;14.35;;;19.20;99.90;;;;;;5114305;28;20084;-73
2022/08/04 04:25:22;;;;;;;20.98;15.23;;;19.20;99.90;;;;;;5112838;28;20039;-73
2022/08/04 04:28:25;;;;;;;20.70;14.15;;;19.30;99.90;;;;;;5114090;28;20035;-72
2022/08/04 04:30:51;;;;;;;20.38;14.48;;;19.30;99.90;;;;;;5114024;28;20062;-71
2022/08/04 04:33:31;;;;;;;21.30;14.80;;;19.30;99.90;;;;;;5114039;28;20440;-73
2022/08/04 04:36:13;;;;;;;18.10;13.77;;;19.30;99.90;;;;;;5114188;28;20051;-73
2022/08/04 04:38:56;;;;;;;21.23;14.07;;;19.30;99.90;;;;;;5112834;28;20480;-72
2022/08/04 04:41:48;;;;;;;19.48;14.15;;;19.30;99.90;;;;;;5114003;28;20034;-72
2022/08/04 04:44:28;;;;;;;22.83;16.58;;;19.30;99.90;;;;;;5113874;28;20031;-72
2022/08/04 04:47:28;;;;;;;19.42;14.13;;;19.40;99.90;;;;;;5113985;28;20026;-73
2022/08/04 04:50:13;;;;;;;22.58;14.05;;;19.40;99.90;;;;;;5113831;28;20046;-73
2022/08/04 04:52:52;;;;;;;19.77;14.40;;;19.40;99.90;;;;;;5113772;28;20031;-72
2022/08/04 04:55:26;;;;;;;19.30;13.90;;;19.40;99.90;;;;;;5113674;28;20047;-72
2022/08/04 04:57:55;;;;;;;18.27;14.70;;;19.40;99.90;;;;;;5113890;28;20077;-73
2022/08/04 05:00:25;;;;;;;21.45;14.45;;;19.40;99.90;;;;;;5113480;28;20024;-73
2022/08/04 05:03:09;;;;;;;20.45;15.07;;;19.40;99.90;;;;;;5113589;28;20055;-72
2022/08/04 05:06:08;;;;;;;20.05;14.82;;;19.30;99.90;;;;;;5111991;28;20016;-73
2022/08/04 05:09:10;;;;;;;19.05;13.90;;;19.30;99.90;;;;;;5113592;28;20461;-73
2022/08/04 05:11:54;;;;;;;21.65;15.38;;;19.30;99.90;;;;;;5113434;28;20027;-74
2022/08/04 05:14:21;;;;;;;20.83;14.70;;;19.30;99.90;;;;;;5113866;28;20035;-72
2022/08/04 05:16:59;;;;;;;24.98;17.35;;;19.30;99.90;;;;;;5113570;28;20115;-73
2022/08/04 05:19:24;;;;;;;21.08;15.98;;;19.30;99.90;;;;;;5113587;28;20147;-73
2022/08/04 05:22:07;;;;;;;22.87;16.27;;;19.30;99.90;;;;;;5113231;28;20103;-73
2022/08/04 05:24:38;;;;;;;22.13;15.50;;;19.30;99.90;;;;;;5112915;28;20028;-73
2022/08/04 05:27:11;;;;;;;20.05;14.70;;;19.40;99.90;;;;;;5113146;28;20132;-73
2022/08/04 05:29:50;;;;;;;20.63;16.33;;;19.30;99.90;;;;;;5111859;28;20039;-73
2022/08/04 05:32:21;;;;;;;22.27;14.85;;;19.40;99.90;;;;;;5113297;28;20027;-73
2022/08/04 05:35:02;;;;;;;18.50;14.80;;;19.40;99.90;;;;;;5112967;28;20111;-74
2022/08/04 05:37:30;;;;;;;20.15;15.85;;;19.40;99.90;;;;;;5112929;27;20016;-73
2022/08/04 05:40:02;;;;;;;22.33;16.75;;;19.40;99.90;;;;;;5111738;28;20028;-73
2022/08/04 05:42:30;;;;;;;19.10;14.75;;;19.40;99.90;;;;;;5112682;28;20023;-74
2022/08/04 05:44:57;;;;;;;20.35;16.00;;;19.40;99.90;;;;;;5111239;28;20023;-74
2022/08/04 05:47:24;;;;;;;21.67;15.20;;;19.40;99.90;;;;;;5111242;28;20077;-73
2022/08/04 05:49:50;;;;;;;22.17;15.55;;;19.40;99.90;;;;;;5112379;28;20043;-73
2022/08/04 05:52:17;;;;;;;20.88;15.80;;;19.50;99.90;;;;;;5111248;28;20023;-73
2022/08/04 05:54:44;;;;;;;22.00;16.02;;;19.50;99.90;;;;;;5112663;28;20546;-73
2022/08/04 05:57:10;;;;;;;21.02;15.98;;;19.50;99.90;;;;;;5112427;28;20188;-73
2022/08/04 05:59:45;;;;;;;19.75;15.48;;;19.50;99.90;;;;;;5111034;28;20394;-73
2022/08/04 06:02:15;;;;;;;23.55;15.88;;;19.50;99.90;;;;;;5112555;28;20043;-73
2022/08/04 06:04:44;;;;;;;20.83;16.45;;;19.50;99.90;;;;;;5112918;28;20392;-73
2022/08/04 06:07:10;;;;;;;22.85;16.10;;;19.60;99.90;;;;;;5112633;28;20475;-73
2022/08/04 06:09:36;;;;;;;22.55;16.33;;;19.60;99.90;;;;;;5112624;28;20027;-73
2022/08/04 06:12:08;;;;;;;22.05;15.65;;;19.50;99.90;;;;;;5112096;28;20032;-73
2022/08/04 06:14:46;;;;;;;23.48;17.38;;;19.60;99.90;;;;;;5112596;27;20079;-73
2022/08/04 06:17:22;;;;;;;20.50;15.93;;;19.10;99.90;;;;;;5112266;27;20118;-73
2022/08/04 06:19:49;;;;;;;19.60;15.25;;;19.70;99.90;;;;;;5110664;28;20036;-73
2022/08/04 06:22:15;;;;;;;21.55;16.20;;;19.80;99.90;;;;;;5110264;28;20024;-74
2022/08/04 06:24:46;;;;;;;19.63;15.18;;;19.90;99.90;;;;;;5110830;28;20123;-72
2022/08/04 06:27:13;;;;;;;21.90;16.50;;;20.00;99.90;;;;;;5110564;28;20364;-73
2022/08/04 06:29:40;;;;;;;20.02;15.50;;;20.20;99.90;;;;;;5112508;28;20463;-72
2022/08/04 06:32:23;;;;;;;21.08;16.20;;;20.30;99.90;;;;;;5110622;28;20430;-73
2022/08/04 06:35:04;;;;;;;20.73;15.75;;;20.30;99.90;;;;;;5110183;28;20114;-72
2022/08/04 06:37:30;;;;;;;20.35;15.45;;;20.30;99.90;;;;;;5111016;28;20080;-72
2022/08/04 06:39:57;;;;;;;17.52;14.60;;;20.40;99.90;;;;;;5111496;28;20107;-73
2022/08/04 06:42:25;;;;;;;22.48;15.25;;;20.30;99.90;;;;;;5110139;28;20168;-73
2022/08/04 06:44:56;;;;;;;19.60;15.75;;;20.30;99.90;;;;;;5111978;28;20036;-73
2022/08/04 06:47:22;;;;;;;19.77;14.82;;;20.20;99.90;;;;;;5111477;28;20371;-74
2022/08/04 06:49:52;;;;;;;18.98;14.63;;;20.20;99.90;;;;;;5111873;28;20127;-73
2022/08/04 06:52:19;;;;;;;19.65;15.32;;;20.30;99.90;;;;;;5111328;28;20142;-73
2022/08/04 06:54:49;;;;;;;;;;;20.20;99.90;;;;;;5112042;28;20131;-74
2022/08/04 06:57:19;;;;;;;19.67;14.23;;;20.20;99.90;;;;;;5109830;28;19951;-73
2022/08/04 06:59:47;;;;;;;20.40;14.95;;;20.20;99.90;;;;;;5111769;28;20383;-73
2022/08/04 07:02:15;;;;;;;20.38;15.57;;;20.20;99.90;;;;;;5109930;28;20030;-73
2022/08/04 07:04:42;;;;;;;20.92;16.50;;;20.30;99.90;;;;;;5110095;28;20039;-72
2022/08/04 07:07:10;;;;;;;19.25;14.63;;;20.30;99.90;;;;;;5109827;28;20047;-73
2022/08/04 07:09:35;;;;;;;19.60;15.02;;;20.30;99.90;;;;;;5111529;28;20042;-73
2022/08/04 07:12:02;;;;;;;20.07;15.63;;;20.40;99.90;;;;;;5111708;28;20115;-73
2022/08/04 07:14:30;;;;;;;;;;;20.40;99.90;;;;;;5112220;28;20031;-73
2022/08/04 07:16:57;;;;;;;20.55;14.80;;;20.50;99.90;;;;;;5110036;28;19903;-74
2022/08/04 07:19:22;;;;;;;22.65;15.73;;;20.60;99.90;;;;;;5109495;28;20167;-73
2022/08/04 07:21:49;;;;;;;19.00;15.17;;;20.70;99.90;;;;;;5111099;28;20386;-73
2022/08/04 07:24:15;;;;;;;;;;;20.80;99.90;;;;;;5111864;28;20024;-74
2022/08/04 07:26:40;;;;;;;18.20;14.10;;;20.90;99.90;;;;;;5110967;28;19908;-73
2022/08/04 07:29:06;;;;;;;17.23;15.00;;;21.00;99.90;;;;;;5109590;28;20462;-74
2022/08/04 07:31:33;;;;;;;22.07;15.80;;;21.10;99.90;;;;;;5109516;28;20054;-74
2022/08/04 07:34:00;;;;;;;20.92;14.48;;;21.20;99.90;;;;;;5111222;28;20028;-74
2022/08/04 07:36:25;;;;;;;18.52;14.50;;;21.20;99.90;;;;;;5110781;28;20502;-74
2022/08/04 07:38:51;;;;;;;16.90;13.93;;;21.30;99.90;;;;;;5109460;28;20028;-74
2022/08/04 07:41:20;;;;;;;20.07;15.80;;;21.30;99.90;;;;;;5110650;28;20035;-73
2022/08/04 07:43:46;;;;;;;20.45;14.20;;;21.40;99.90;;;;;;5109290;28;20047;-74
2022/08/04 07:46:12;;;;;;;21.35;14.95;;;21.40;99.90;;;;;;5110526;28;20030;-74
2022/08/04 07:48:38;;;;;;;18.50;13.90;;;21.30;99.90;;;;;;5109010;28;20126;-73
2022/08/04 07:51:05;;;;;;;24.03;15.23;;;21.30;99.90;;;;;;5110631;28;20060;-74
2022/08/04 07:53:32;;;;;;;16.73;13.25;;;21.30;99.90;;;;;;5109219;28;20038;-73
2022/08/04 07:56:00;;;;;;;18.85;13.88;;;21.40;99.90;;;;;;5109096;28;20039;-74
2022/08/04 07:58:27;;;;;;;19.83;14.13;;;21.30;99.90;;;;;;5110724;28;20495;-73
2022/08/04 08:00:53;;;;;;;18.50;14.48;;;21.30;99.90;;;;;;5108904;28;20023;-73
2022/08/04 08:03:19;;;;;;;16.88;13.68;;;21.40;99.90;;;;;;5108696;28;20172;-74
2022/08/04 08:05:45;;;;;;;17.98;13.90;;;21.50;99.90;;;;;;5110236;28;20106;-74
2022/08/04 08:08:11;;;;;;;18.10;13.80;;;21.60;99.90;;;;;;5110541;28;20228;-74
2022/08/04 08:10:38;;;;;;;16.50;13.33;;;21.70;99.90;;;;;;5110356;28;20023;-74
2022/08/04 08:13:05;;;;;;;20.00;13.95;;;21.70;99.90;;;;;;5110287;28;20028;-74
2022/08/04 08:15:31;;;;;;;16.95;13.50;;;21.70;99.90;;;;;;5110232;28;20019;-73
2022/08/04 08:17:58;;;;;;;33.22;13.90;;;21.70;99.90;;;;;;5109990;28;20046;-73
2022/08/04 08:20:23;;;;;;;18.13;12.38;;;21.70;99.90;;;;;;5109969;28;20482;-74
2022/08/04 08:22:49;;;;;;;19.07;13.87;;;21.70;99.90;;;;;;5110428;28;20110;-74
2022/08/04 08:25:15;;;;;;;15.37;13.00;;;21.70;99.90;;;;;;5110259;28;20022;-74
2022/08/04 08:27:40;;;;;;;16.00;12.77;;;21.70;99.90;;;;;;5108815;28;20020;-73
2022/08/04 08:30:07;;;;;;;16.67;12.87;;;21.70;99.90;;;;;;5110063;28;20038;-73
2022/08/04 08:32:33;;;;;;;16.45;13.38;;;21.70;99.90;;;;;;5108658;28;20046;-73
2022/08/04 08:34:59;;;;;;;18.17;13.83;;;21.80;99.90;;;;;;5110250;28;20111;-73
2022/08/04 08:37:29;;;;;;;15.77;12.45;;;21.90;99.90;;;;;;5110041;28;20383;-74
2022/08/04 08:40:06;;;;;;;13.98;12.38;;;22.00;99.90;;;;;;5109832;28;20066;-73
2022/08/04 08:42:58;;;;;;;17.80;12.70;;;22.10;99.90;;;;;;5110052;28;20035;-74
2022/08/04 08:45:42;;;;;;;13.52;11.60;;;22.10;99.90;;;;;;5109900;28;20355;-74
2022/08/04 08:48:26;;;;;;;13.82;12.15;;;22.30;99.90;;;;;;5110053;28;20043;-74
2022/08/04 08:50:52;;;;;;;16.73;11.95;;;22.50;99.90;;;;;;5108475;28;20020;-72
2022/08/04 08:53:47;;;;;;;14.00;12.50;;;22.70;99.90;;;;;;5110045;28;20395;-74
2022/08/04 08:56:19;;;;;;;15.40;12.38;;;22.90;99.90;;;;;;5108271;28;20117;-74
2022/08/04 08:58:58;;;;;;;14.73;11.88;;;23.10;99.90;;;;;;5110400;28;20042;-74
2022/08/04 09:02:06;;;;;;;15.70;11.38;;;23.30;99.90;;;;;;5112135;28;20565;-74
2022/08/04 09:04:43;;;;;;;13.30;11.47;;;23.60;99.90;;;;;;5113513;28;20482;-71
2022/08/04 09:07:23;;;;;;;;;;;23.80;99.90;;;;;;5114132;28;20011;-74
2022/08/04 09:10:15;;;;;;;14.82;11.95;;;24.00;99.90;;;;;;5113702;28;19918;-73
2022/08/04 09:13:01;;;;;;;15.00;11.07;;;24.20;99.90;;;;;;5113398;28;20088;-74
2022/08/04 09:15:35;;;;;;;12.93;11.55;;;24.40;99.90;;;;;;5112174;28;20031;-73
2022/08/04 09:18:06;;;;;;;12.98;11.50;;;24.40;99.90;;;;;;5113287;28;20511;-73
2022/08/04 09:20:45;;;;;;;12.77;10.52;;;24.40;99.90;;;;;;5111723;28;20073;-73
2022/08/04 09:23:17;;;;;;;12.88;11.40;;;24.60;99.90;;;;;;5113306;28;20027;-73
2022/08/04 09:26:02;;;;;;;18.15;11.48;;;24.70;99.90;;;;;;5111746;28;20054;-73
2022/08/04 09:28:37;;;;;;;15.15;11.32;;;24.70;99.90;;;;;;5112777;28;20391;-73
2022/08/04 09:31:08;;;;;;;18.25;11.68;;;24.60;99.90;;;;;;5112934;28;20106;-73
2022/08/04 09:33:52;;;;;;;12.88;10.95;;;24.60;99.90;;;;;;5113065;28;20059;-73
2022/08/04 09:36:38;;;;;;;12.55;11.07;;;24.70;99.90;;;;;;5111423;28;20395;-72
2022/08/04 09:39:35;;;;;;;13.10;11.70;;;24.90;99.90;;;;;;5111235;28;20035;-73
2022/08/04 09:42:16;;;;;;;15.07;11.13;;;25.10;99.90;;;;;;5112772;28;20471;-72
2022/08/04 09:45:04;;;;;;;12.30;10.60;;;25.20;99.90;;;;;;5111530;28;20081;-73
2022/08/04 09:47:56;;;;;;;11.77;10.20;;;25.40;99.90;;;;;;5112443;28;20055;-73
2022/08/04 09:50:39;;;;;;;12.05;9.82;;;25.40;99.90;;;;;;5112584;28;20034;-73
2022/08/04 09:53:26;;;;;;;13.20;10.32;;;25.50;99.90;;;;;;5112314;28;20115;-73
2022/08/04 09:56:02;;;;;;;13.98;10.43;;;25.70;99.90;;;;;;5112281;28;20055;-72
2022/08/04 09:58:45;;;;;;;11.32;9.85;;;25.80;99.90;;;;;;5110716;28;20035;-73
2022/08/04 10:01:18;;;;;;;12.98;9.63;;;25.90;99.90;;;;;;5111953;28;20020;-73
2022/08/04 10:04:06;;;;;;;11.07;9.38;;;25.70;99.90;;;;;;5110748;28;20042;-74
2022/08/04 10:06:59;;;;;;;10.75;9.35;;;25.60;99.90;;;;;;5112172;28;20080;-74
2022/08/04 10:09:55;;;;;;;12.18;9.73;;;25.70;99.90;;;;;;5110816;28;20078;-74
2022/08/04 10:12:34;;;;;;;9.90;8.85;;;26.10;99.90;;;;;;5112106;27;20027;-74
2022/08/04 10:15:00;;;;;;;11.23;9.90;;;26.30;99.90;;;;;;5110734;28;20028;-74
2022/08/04 10:17:53;;;;;;;10.97;8.93;;;26.30;99.90;;;;;;5110552;28;20387;-74
2022/08/04 10:21:01;;;;;;;11.30;8.80;;;26.20;99.90;;;;;;5110461;28;20453;-74
2022/08/04 10:23:30;;;;;;;13.88;9.35;;;26.00;99.90;;;;;;5076582;28;20046;-74
2022/08/04 10:26:05;;;;;;;13.27;9.05;;;26.20;99.90;;;;;;5111879;28;20033;-78
2022/08/04 10:28:40;;;;;;;10.60;8.88;;;26.40;99.90;;;;;;5111749;28;20127;-73
2022/08/04 10:31:09;;;;;;;12.20;9.32;;;26.80;99.90;;;;;;5110351;28;20151;-73
2022/08/04 10:33:59;;;;;;;10.02;8.95;;;27.10;99.90;;;;;;5111999;28;20146;-74
2022/08/04 10:36:30;;;;;;;10.90;8.68;;;27.10;99.90;;;;;;5111673;27;20028;-74
2022/08/04 10:39:13;;;;;;;9.23;8.20;;;27.40;99.90;;;;;;5111800;28;20036;-75
2022/08/04 10:41:52;;;;;;;9.27;7.88;;;27.80;99.90;;;;;;5111617;27;20027;-74
2022/08/04 10:44:50;;;;;;;10.15;8.23;;;28.10;99.90;;;;;;5111969;27;20371;-74
2022/08/04 10:47:21;;;;;;;9.65;8.30;;;28.30;99.90;;;;;;5110110;28;20047;-73
2022/08/04 10:49:53;;;;;;;11.52;8.73;;;28.50;99.90;;;;;;5112020;28;20554;-74
2022/08/04 10:52:34;;;;;;;12.98;8.57;;;28.70;99.90;;;;;;5111240;28;20035;-74
2022/08/04 10:55:14;;;;;;;14.45;8.35;;;28.80;99.90;;;;;;5111203;28;20055;-74
2022/08/04 10:57:50;;;;;;;10.20;8.50;;;29.00;99.90;;;;;;5109872;28;20028;-74
2022/08/04 11:00:27;;;;;;;9.43;7.93;;;29.10;99.90;;;;;;5111399;28;20549;-74
2022/08/04 11:03:22;;;;;;;12.07;8.55;;;29.20;99.90;;;;;;5111425;28;20035;-74
2022/08/04 11:05:58;;;;;;;10.05;8.13;;;29.30;99.90;;;;;;5111196;28;20023;-74
2022/08/04 11:08:26;;;;;;;9.57;8.55;;;29.20;99.90;;;;;;5109701;28;20399;-73
2022/08/04 11:11:01;;;;;;;15.32;9.05;;;29.40;99.90;;;;;;5109602;28;20503;-74
2022/08/04 11:13:41;;;;;;;56.78;16.42;;;29.40;99.90;;;;;;5111216;28;20165;-73
2022/08/04 11:16:31;;;;;;;10.88;8.98;;;28.60;99.90;;;;;;5110969;27;20517;-73
2022/08/04 11:19:17;;;;;;;10.88;9.18;;;27.50;99.90;;;;;;5110572;28;20051;-73
2022/08/04 11:21:52;;;;;;;11.77;9.65;;;26.40;99.90;;;;;;5110190;28;20024;-73
2022/08/04 11:24:22;;;;;;;11.02;9.73;;;25.70;99.90;;;;;;5111076;28;20435;-73
2022/08/04 11:26:57;;;;;;;13.77;10.60;;;25.20;99.90;;;;;;5109438;28;20063;-73
2022/08/04 11:29:55;;;;;;;12.65;10.50;;;25.00;99.90;;;;;;5109342;28;20039;-73
2022/08/04 11:32:31;;;;;;;11.13;9.30;;;25.10;99.90;;;;;;5110647;28;20332;-75
2022/08/04 11:35:01;;;;;;;13.35;10.07;;;25.50;99.90;;;;;;5109219;28;20027;-73
2022/08/04 11:37:40;;;;;;;12.70;10.48;;;25.80;99.90;;;;;;5109277;28;20523;-73
2022/08/04 11:40:19;;;;;;;11.35;10.00;;;26.00;99.90;;;;;;5109134;28;20130;-73
2022/08/04 11:42:56;;;;;;;11.48;9.50;;;26.10;99.90;;;;;;5109411;28;20024;-74
2022/08/04 11:45:40;;;;;;;10.98;9.85;;;26.10;99.90;;;;;;5110591;28;20403;-73
2022/08/04 11:48:24;;;;;;;11.82;10.23;;;26.10;99.90;;;;;;5110643;28;20027;-73
2022/08/04 11:50:52;;;;;;;11.02;9.70;;;26.00;99.90;;;;;;5109114;28;20031;-73
2022/08/04 11:53:22;;;;;;;11.98;9.80;;;26.00;99.90;;;;;;5110441;28;20024;-73
2022/08/04 11:55:51;;;;;;;10.20;9.00;;;26.20;99.90;;;;;;5110187;28;20118;-74
2022/08/04 11:58:19;;;;;;;13.13;8.88;;;26.50;99.90;;;;;;5110466;28;20058;-74
2022/08/04 12:00:54;;;;;;;10.80;8.90;;;26.40;99.90;;;;;;5110133;28;20020;-74
2022/08/04 12:03:49;;;;;;;12.90;10.43;;;26.20;99.90;;;;;;5110446;28;20027;-74
2022/08/04 12:06:30;;;;;;;11.23;9.90;;;25.90;99.90;;;;;;5108883;28;20023;-73
2022/08/04 12:09:08;;;;;;;11.65;8.75;;;25.50;99.90;;;;;;5108781;28;20030;-74
2022/08/04 12:12:07;;;;;;;10.55;9.15;;;25.40;99.90;;;;;;5108943;28;20616;-73
2022/08/04 12:14:55;;;;;;;9.98;8.43;;;25.60;99.90;;;;;;5110643;28;20028;-74
2022/08/04 12:17:47;;;;;;;12.10;9.55;;;25.90;99.90;;;;;;5110358;28;20054;-74
2022/08/04 12:20:20;;;;;;;12.48;8.85;;;26.00;99.90;;;;;;5104960;28;20494;-75
2022/08/04 12:22:49;;;;;;;11.02;8.65;;;25.80;99.90;;;;;;5110370;28;20023;-75
2022/08/04 12:25:29;;;;;;;10.63;8.95;;;25.60;99.90;;;;;;5110364;28;20088;-75
2022/08/04 12:28:07;;;;;;;11.27;9.43;;;25.40;99.90;;;;;;5110093;28;20031;-74
2022/08/04 12:30:42;;;;;;;14.15;9.55;;;25.10;99.90;;;;;;5110160;28;20535;-73
2022/08/04 12:33:26;;;;;;;10.57;8.93;;;24.80;99.90;;;;;;5108515;28;20126;-74
2022/08/04 12:36:00;;;;;;;10.38;9.27;;;24.50;99.90;;;;;;5114066;28;20028;-73
2022/08/04 12:38:31;;;;;;;11.43;9.40;;;24.20;99.90;;;;;;5113656;28;20027;-74
2022/08/04 12:41:02;;;;;;;10.50;9.00;;;24.00;99.90;;;;;;5113765;28;20032;-73
2022/08/04 12:43:37;;;;;;;12.55;9.20;;;23.80;99.90;;;;;;5114017;28;20030;-74
2022/08/04 12:46:06;;;;;;;11.38;9.55;;;23.70;99.90;;;;;;5113945;28;20038;-73
2022/08/04 12:48:34;;;;;;;11.27;9.73;;;23.60;99.90;;;;;;5114015;28;20028;-73
2022/08/04 12:51:00;;;;;;;13.10;9.85;;;23.70;99.90;;;;;;5112363;28;20028;-73
2022/08/04 12:53:31;;;;;;;12.60;10.13;;;23.80;99.90;;;;;;5113859;28;20039;-74
2022/08/04 12:55:58;;;;;;;12.20;10.40;;;23.80;99.90;;;;;;5113684;28;20048;-73
2022/08/04 12:58:27;;;;;;;10.15;8.63;;;23.90;99.90;;;;;;5112494;28;20461;-74
2022/08/04 13:00:57;;;;;;;9.52;7.93;;;23.90;99.90;;;;;;5112373;28;20031;-74
2022/08/04 13:03:28;;;;;;;10.10;7.88;;;23.80;99.90;;;;;;5112193;28;20036;-73
2022/08/04 13:05:57;;;;;;;11.82;8.32;;;23.80;99.90;;;;;;5113845;28;20102;-74
2022/08/04 13:08:23;;;;;;;11.82;8.55;;;23.70;99.90;;;;;;5113673;28;20062;-74
2022/08/04 13:10:52;;;;;;;9.23;7.57;;;23.70;99.90;;;;;;5113349;28;20498;-74
2022/08/04 13:13:20;;;;;;;9.18;8.15;;;23.70;99.90;;;;;;5111970;28;20487;-74
2022/08/04 13:15:58;;;;;;;10.93;8.40;;;23.70;99.90;;;;;;5113417;28;20033;-74
2022/08/04 13:18:25;;;;;;;;;;;23.70;99.90;;;;;;5113898;28;20430;-74
2022/08/04 13:20:51;;;;;;;9.63;8.00;;;23.70;99.90;;;;;;5111683;28;20378;-73
2022/08/04 13:23:18;;;;;;;10.27;8.05;;;23.80;99.90;;;;;;5113257;28;20061;-74
2022/08/04 13:25:46;;;;;;;9.13;7.40;;;23.90;99.90;;;;;;5112952;28;20387;-74